sensor_id;sensor_type;location;lat;lon;timestamp;P1;durP1;ratioP1;P2;durP2;ratioP2
13580;SDS011;6861;46.170;7.222;2022-09-13T00:01:44;1.23;;;0.80;;
13580;SDS011;6861;46.170;7.222;2022-09-13T00:04:13;1.20;;;0.80;;
13580;SDS011;6861;46.170;7.222;2022-09-13T00:06:40;2.13;;;0.95;;
13580;SDS011;6861;46.170;7.222;2022-09-13T00:09:07;1.42;;;0.85;;
13580;SDS011;6861;46.170;7.222;2022-09-13T00:11:34;2.45;;;0.90;;
13580;SDS011;6861;46.170;7.222;2022-09-13T00:14:01;1.48;;;0.95;;
13580;SDS011;6861;46.170;7.222;2022-09-13T00:16:28;0.93;;;0.73;;
13580;SDS011;6861;46.170;7.222;2022-09-13T00:18:55;2.38;;;0.77;;
13580;SDS011;6861;46.170;7.222;2022-09-13T00:21:24;1.83;;;0.90;;
13580;SDS011;6861;46.170;7.222;2022-09-13T00:23:52;1.92;;;0.70;;
13580;SDS011;6861;46.170;7.222;2022-09-13T00:26:21;2.30;;;0.95;;
13580;SDS011;6861;46.170;7.222;2022-09-13T00:28:49;2.17;;;0.70;;
13580;SDS011;6861;46.170;7.222;2022-09-13T00:31:17;1.27;;;0.60;;
13580;SDS011;6861;46.170;7.222;2022-09-13T00:33:45;0.80;;;0.70;;
13580;SDS011;6861;46.170;7.222;2022-09-13T00:36:12;2.35;;;0.90;;
13580;SDS011;6861;46.170;7.222;2022-09-13T00:38:42;2.90;;;1.00;;
13580;SDS011;6861;46.170;7.222;2022-09-13T00:41:10;0.60;;;0.60;;
13580;SDS011;6861;46.170;7.222;2022-09-13T00:43:40;2.17;;;0.80;;
13580;SDS011;6861;46.170;7.222;2022-09-13T00:46:09;2.60;;;0.70;;
13580;SDS011;6861;46.170;7.222;2022-09-13T00:48:38;1.48;;;0.80;;
13580;SDS011;6861;46.170;7.222;2022-09-13T00:51:06;1.15;;;0.68;;
13580;SDS011;6861;46.170;7.222;2022-09-13T00:53:37;2.10;;;0.70;;
13580;SDS011;6861;46.170;7.222;2022-09-13T00:56:12;0.95;;;0.70;;
13580;SDS011;6861;46.170;7.222;2022-09-13T00:58:43;1.90;;;0.80;;
13580;SDS011;6861;46.170;7.222;2022-09-13T01:01:14;1.67;;;0.70;;
13580;SDS011;6861;46.170;7.222;2022-09-13T01:03:43;0.80;;;0.70;;
13580;SDS011;6861;46.170;7.222;2022-09-13T01:06:13;2.40;;;0.80;;
13580;SDS011;6861;46.170;7.222;2022-09-13T01:08:42;1.17;;;0.82;;
13580;SDS011;6861;46.170;7.222;2022-09-13T01:11:16;2.53;;;0.90;;
13580;SDS011;6861;46.170;7.222;2022-09-13T01:13:46;1.38;;;0.80;;
13580;SDS011;6861;46.170;7.222;2022-09-13T01:16:15;2.38;;;0.68;;
13580;SDS011;6861;46.170;7.222;2022-09-13T01:18:42;1.20;;;0.70;;
13580;SDS011;6861;46.170;7.222;2022-09-13T01:21:18;1.30;;;0.70;;
13580;SDS011;6861;46.170;7.222;2022-09-13T01:24:08;4.38;;;0.73;;
13580;SDS011;6861;46.170;7.222;2022-09-13T01:27:02;1.42;;;0.95;;
13580;SDS011;6861;46.170;7.222;2022-09-13T01:32:32;2.47;;;0.90;;
13580;SDS011;6861;46.170;7.222;2022-09-13T01:35:12;2.08;;;0.90;;
13580;SDS011;6861;46.170;7.222;2022-09-13T01:37:51;1.52;;;0.80;;
13580;SDS011;6861;46.170;7.222;2022-09-13T01:40:25;2.45;;;0.90;;
13580;SDS011;6861;46.170;7.222;2022-09-13T01:43:16;1.38;;;0.90;;
13580;SDS011;6861;46.170;7.222;2022-09-13T01:45:55;0.95;;;0.70;;
13580;SDS011;6861;46.170;7.222;2022-09-13T01:48:32;2.25;;;0.75;;
13580;SDS011;6861;46.170;7.222;2022-09-13T01:51:09;0.65;;;0.60;;
13580;SDS011;6861;46.170;7.222;2022-09-13T01:53:44;0.80;;;0.60;;
13580;SDS011;6861;46.170;7.222;2022-09-13T01:56:21;4.88;;;0.75;;
13580;SDS011;6861;46.170;7.222;2022-09-13T01:58:54;0.90;;;0.70;;
13580;SDS011;6861;46.170;7.222;2022-09-13T02:01:27;1.50;;;0.85;;
13580;SDS011;6861;46.170;7.222;2022-09-13T02:03:57;1.90;;;0.73;;
13580;SDS011;6861;46.170;7.222;2022-09-13T02:06:30;2.15;;;0.80;;
13580;SDS011;6861;46.170;7.222;2022-09-13T02:09:00;1.67;;;0.90;;
13580;SDS011;6861;46.170;7.222;2022-09-13T02:11:34;2.78;;;0.80;;
13580;SDS011;6861;46.170;7.222;2022-09-13T02:14:04;1.25;;;0.70;;
13580;SDS011;6861;46.170;7.222;2022-09-13T02:16:35;2.33;;;0.80;;
13580;SDS011;6861;46.170;7.222;2022-09-13T02:19:08;1.27;;;0.80;;
13580;SDS011;6861;46.170;7.222;2022-09-13T02:21:40;1.35;;;0.68;;
13580;SDS011;6861;46.170;7.222;2022-09-13T02:24:12;1.95;;;0.82;;
13580;SDS011;6861;46.170;7.222;2022-09-13T02:26:43;3.05;;;1.00;;
13580;SDS011;6861;46.170;7.222;2022-09-13T02:29:13;1.33;;;0.90;;
13580;SDS011;6861;46.170;7.222;2022-09-13T02:31:46;0.93;;;0.70;;
13580;SDS011;6861;46.170;7.222;2022-09-13T02:34:18;3.78;;;1.00;;
13580;SDS011;6861;46.170;7.222;2022-09-13T02:36:47;3.45;;;0.98;;
13580;SDS011;6861;46.170;7.222;2022-09-13T02:39:18;3.72;;;1.02;;
13580;SDS011;6861;46.170;7.222;2022-09-13T02:41:51;1.20;;;0.80;;
13580;SDS011;6861;46.170;7.222;2022-09-13T02:44:23;2.42;;;0.93;;
13580;SDS011;6861;46.170;7.222;2022-09-13T02:47:02;1.25;;;0.85;;
13580;SDS011;6861;46.170;7.222;2022-09-13T02:49:39;2.13;;;0.80;;
13580;SDS011;6861;46.170;7.222;2022-09-13T02:52:18;4.90;;;0.82;;
13580;SDS011;6861;46.170;7.222;2022-09-13T02:54:51;2.50;;;0.90;;
13580;SDS011;6861;46.170;7.222;2022-09-13T02:57:24;2.42;;;0.80;;
13580;SDS011;6861;46.170;7.222;2022-09-13T02:59:55;2.25;;;0.85;;
13580;SDS011;6861;46.170;7.222;2022-09-13T03:02:24;2.10;;;0.80;;
13580;SDS011;6861;46.170;7.222;2022-09-13T03:04:55;2.90;;;0.80;;
13580;SDS011;6861;46.170;7.222;2022-09-13T03:07:22;1.65;;;0.90;;
13580;SDS011;6861;46.170;7.222;2022-09-13T03:09:49;2.22;;;0.60;;
13580;SDS011;6861;46.170;7.222;2022-09-13T03:12:23;1.65;;;0.80;;
13580;SDS011;6861;46.170;7.222;2022-09-13T03:15:11;2.55;;;0.70;;
13580;SDS011;6861;46.170;7.222;2022-09-13T03:17:48;1.55;;;0.73;;
13580;SDS011;6861;46.170;7.222;2022-09-13T03:20:24;1.98;;;0.73;;
13580;SDS011;6861;46.170;7.222;2022-09-13T03:23:05;2.17;;;0.80;;
13580;SDS011;6861;46.170;7.222;2022-09-13T03:25:54;1.23;;;0.75;;
13580;SDS011;6861;46.170;7.222;2022-09-13T03:28:47;1.10;;;0.80;;
13580;SDS011;6861;46.170;7.222;2022-09-13T03:31:22;1.30;;;0.80;;
13580;SDS011;6861;46.170;7.222;2022-09-13T03:33:58;1.60;;;0.90;;
13580;SDS011;6861;46.170;7.222;2022-09-13T03:36:32;0.90;;;0.60;;
13580;SDS011;6861;46.170;7.222;2022-09-13T03:39:07;1.38;;;0.57;;
13580;SDS011;6861;46.170;7.222;2022-09-13T03:41:41;2.03;;;0.90;;
13580;SDS011;6861;46.170;7.222;2022-09-13T03:44:13;2.25;;;0.88;;
13580;SDS011;6861;46.170;7.222;2022-09-13T03:46:43;4.07;;;0.70;;
13580;SDS011;6861;46.170;7.222;2022-09-13T03:49:15;2.47;;;0.90;;
13580;SDS011;6861;46.170;7.222;2022-09-13T03:51:44;2.35;;;1.00;;
13580;SDS011;6861;46.170;7.222;2022-09-13T03:54:15;1.52;;;0.80;;
13580;SDS011;6861;46.170;7.222;2022-09-13T03:59:34;2.40;;;0.90;;
13580;SDS011;6861;46.170;7.222;2022-09-13T04:02:03;2.70;;;0.80;;
13580;SDS011;6861;46.170;7.222;2022-09-13T04:04:33;2.30;;;0.90;;
13580;SDS011;6861;46.170;7.222;2022-09-13T04:06:59;4.35;;;0.90;;
13580;SDS011;6861;46.170;7.222;2022-09-13T04:09:28;0.75;;;0.60;;
13580;SDS011;6861;46.170;7.222;2022-09-13T04:11:55;1.05;;;0.80;;
13580;SDS011;6861;46.170;7.222;2022-09-13T04:14:23;1.58;;;0.90;;
13580;SDS011;6861;46.170;7.222;2022-09-13T04:16:51;2.55;;;0.80;;
13580;SDS011;6861;46.170;7.222;2022-09-13T04:19:19;2.00;;;0.90;;
13580;SDS011;6861;46.170;7.222;2022-09-13T04:21:48;1.30;;;0.90;;
13580;SDS011;6861;46.170;7.222;2022-09-13T04:24:16;1.75;;;0.75;;
13580;SDS011;6861;46.170;7.222;2022-09-13T04:26:43;1.70;;;0.88;;
13580;SDS011;6861;46.170;7.222;2022-09-13T04:29:10;4.93;;;1.00;;
13580;SDS011;6861;46.170;7.222;2022-09-13T04:31:37;1.73;;;0.93;;
13580;SDS011;6861;46.170;7.222;2022-09-13T04:34:04;2.63;;;1.10;;
13580;SDS011;6861;46.170;7.222;2022-09-13T04:36:32;2.20;;;1.02;;
13580;SDS011;6861;46.170;7.222;2022-09-13T04:39:00;3.95;;;1.15;;
13580;SDS011;6861;46.170;7.222;2022-09-13T04:41:27;3.40;;;1.10;;
13580;SDS011;6861;46.170;7.222;2022-09-13T04:43:56;1.88;;;0.98;;
13580;SDS011;6861;46.170;7.222;2022-09-13T04:46:23;2.55;;;1.08;;
13580;SDS011;6861;46.170;7.222;2022-09-13T04:48:50;2.10;;;1.20;;
13580;SDS011;6861;46.170;7.222;2022-09-13T04:51:18;2.22;;;1.00;;
13580;SDS011;6861;46.170;7.222;2022-09-13T04:53:45;2.58;;;1.02;;
13580;SDS011;6861;46.170;7.222;2022-09-13T04:56:18;4.90;;;1.20;;
13580;SDS011;6861;46.170;7.222;2022-09-13T04:58:45;1.70;;;0.80;;
13580;SDS011;6861;46.170;7.222;2022-09-13T05:01:12;2.13;;;0.90;;
13580;SDS011;6861;46.170;7.222;2022-09-13T05:03:39;2.60;;;0.80;;
13580;SDS011;6861;46.170;7.222;2022-09-13T05:06:06;2.15;;;1.10;;
13580;SDS011;6861;46.170;7.222;2022-09-13T05:08:35;2.40;;;1.25;;
13580;SDS011;6861;46.170;7.222;2022-09-13T05:11:03;3.58;;;1.23;;
13580;SDS011;6861;46.170;7.222;2022-09-13T05:13:31;1.58;;;0.88;;
13580;SDS011;6861;46.170;7.222;2022-09-13T05:15:59;2.00;;;0.98;;
13580;SDS011;6861;46.170;7.222;2022-09-13T05:18:28;2.10;;;1.00;;
13580;SDS011;6861;46.170;7.222;2022-09-13T05:20:57;2.45;;;0.90;;
13580;SDS011;6861;46.170;7.222;2022-09-13T05:23:24;3.33;;;0.80;;
13580;SDS011;6861;46.170;7.222;2022-09-13T05:25:52;2.22;;;0.70;;
13580;SDS011;6861;46.170;7.222;2022-09-13T05:28:19;2.63;;;0.80;;
13580;SDS011;6861;46.170;7.222;2022-09-13T05:30:54;3.30;;;1.23;;
13580;SDS011;6861;46.170;7.222;2022-09-13T05:33:22;2.70;;;0.80;;
13580;SDS011;6861;46.170;7.222;2022-09-13T05:35:49;4.40;;;0.80;;
13580;SDS011;6861;46.170;7.222;2022-09-13T05:38:16;1.92;;;0.80;;
13580;SDS011;6861;46.170;7.222;2022-09-13T05:40:43;3.85;;;0.93;;
13580;SDS011;6861;46.170;7.222;2022-09-13T05:43:10;3.20;;;0.80;;
13580;SDS011;6861;46.170;7.222;2022-09-13T05:45:37;4.05;;;1.02;;
13580;SDS011;6861;46.170;7.222;2022-09-13T05:48:05;1.77;;;1.05;;
13580;SDS011;6861;46.170;7.222;2022-09-13T05:50:35;1.50;;;1.20;;
13580;SDS011;6861;46.170;7.222;2022-09-13T05:53:03;1.30;;;1.00;;
13580;SDS011;6861;46.170;7.222;2022-09-13T05:55:30;5.95;;;1.17;;
13580;SDS011;6861;46.170;7.222;2022-09-13T05:57:57;1.70;;;1.00;;
13580;SDS011;6861;46.170;7.222;2022-09-13T06:00:24;3.85;;;1.13;;
13580;SDS011;6861;46.170;7.222;2022-09-13T06:02:51;5.70;;;1.13;;
13580;SDS011;6861;46.170;7.222;2022-09-13T06:05:19;2.97;;;1.23;;
13580;SDS011;6861;46.170;7.222;2022-09-13T06:07:46;5.07;;;1.25;;
13580;SDS011;6861;46.170;7.222;2022-09-13T06:10:13;3.45;;;1.10;;
13580;SDS011;6861;46.170;7.222;2022-09-13T06:12:40;5.10;;;1.20;;
13580;SDS011;6861;46.170;7.222;2022-09-13T06:15:07;4.80;;;1.20;;
13580;SDS011;6861;46.170;7.222;2022-09-13T06:17:35;7.63;;;1.52;;
13580;SDS011;6861;46.170;7.222;2022-09-13T06:20:02;6.72;;;1.10;;
13580;SDS011;6861;46.170;7.222;2022-09-13T06:22:31;2.90;;;0.90;;
13580;SDS011;6861;46.170;7.222;2022-09-13T06:24:59;5.30;;;1.15;;
13580;SDS011;6861;46.170;7.222;2022-09-13T06:27:27;1.50;;;0.90;;
13580;SDS011;6861;46.170;7.222;2022-09-13T06:29:55;3.40;;;1.02;;
13580;SDS011;6861;46.170;7.222;2022-09-13T06:32:22;2.45;;;0.90;;
13580;SDS011;6861;46.170;7.222;2022-09-13T06:34:49;2.65;;;0.90;;
13580;SDS011;6861;46.170;7.222;2022-09-13T06:37:16;2.53;;;0.80;;
13580;SDS011;6861;46.170;7.222;2022-09-13T06:39:44;3.20;;;1.00;;
13580;SDS011;6861;46.170;7.222;2022-09-13T06:42:11;3.95;;;1.13;;
13580;SDS011;6861;46.170;7.222;2022-09-13T06:44:38;5.65;;;1.40;;
13580;SDS011;6861;46.170;7.222;2022-09-13T06:47:05;2.42;;;1.00;;
13580;SDS011;6861;46.170;7.222;2022-09-13T06:49:32;1.77;;;0.80;;
13580;SDS011;6861;46.170;7.222;2022-09-13T06:51:58;4.55;;;1.27;;
13580;SDS011;6861;46.170;7.222;2022-09-13T06:54:25;3.72;;;1.15;;
13580;SDS011;6861;46.170;7.222;2022-09-13T06:56:54;3.40;;;1.30;;
13580;SDS011;6861;46.170;7.222;2022-09-13T06:59:20;5.18;;;1.17;;
13580;SDS011;6861;46.170;7.222;2022-09-13T07:01:48;4.18;;;1.00;;
13580;SDS011;6861;46.170;7.222;2022-09-13T07:04:15;4.75;;;1.42;;
13580;SDS011;6861;46.170;7.222;2022-09-13T07:06:44;6.43;;;1.30;;
13580;SDS011;6861;46.170;7.222;2022-09-13T07:09:13;3.10;;;0.95;;
13580;SDS011;6861;46.170;7.222;2022-09-13T07:11:42;1.83;;;1.10;;
13580;SDS011;6861;46.170;7.222;2022-09-13T07:14:13;3.08;;;1.00;;
13580;SDS011;6861;46.170;7.222;2022-09-13T07:16:41;4.25;;;0.93;;
13580;SDS011;6861;46.170;7.222;2022-09-13T07:19:11;4.68;;;1.23;;
13580;SDS011;6861;46.170;7.222;2022-09-13T07:21:39;4.85;;;1.00;;
13580;SDS011;6861;46.170;7.222;2022-09-13T07:24:06;5.05;;;0.90;;
13580;SDS011;6861;46.170;7.222;2022-09-13T07:26:33;5.43;;;1.00;;
13580;SDS011;6861;46.170;7.222;2022-09-13T07:29:01;7.60;;;1.05;;
13580;SDS011;6861;46.170;7.222;2022-09-13T07:31:31;3.40;;;1.00;;
13580;SDS011;6861;46.170;7.222;2022-09-13T07:34:00;5.82;;;1.15;;
13580;SDS011;6861;46.170;7.222;2022-09-13T07:36:28;7.72;;;1.20;;
13580;SDS011;6861;46.170;7.222;2022-09-13T07:38:57;4.50;;;1.20;;
13580;SDS011;6861;46.170;7.222;2022-09-13T07:41:24;3.47;;;1.10;;
13580;SDS011;6861;46.170;7.222;2022-09-13T07:43:52;2.30;;;0.80;;
13580;SDS011;6861;46.170;7.222;2022-09-13T07:46:20;2.50;;;0.90;;
13580;SDS011;6861;46.170;7.222;2022-09-13T07:48:50;7.22;;;1.20;;
13580;SDS011;6861;46.170;7.222;2022-09-13T07:51:19;4.53;;;1.17;;
13580;SDS011;6861;46.170;7.222;2022-09-13T07:53:48;4.10;;;1.10;;
13580;SDS011;6861;46.170;7.222;2022-09-13T07:56:17;6.43;;;0.93;;
13580;SDS011;6861;46.170;7.222;2022-09-13T07:58:45;3.05;;;0.85;;
13580;SDS011;6861;46.170;7.222;2022-09-13T08:01:14;2.47;;;0.88;;
13580;SDS011;6861;46.170;7.222;2022-09-13T08:03:43;5.13;;;1.15;;
13580;SDS011;6861;46.170;7.222;2022-09-13T08:06:16;2.78;;;0.73;;
13580;SDS011;6861;46.170;7.222;2022-09-13T08:08:44;3.22;;;0.80;;
13580;SDS011;6861;46.170;7.222;2022-09-13T08:11:13;1.08;;;0.57;;
13580;SDS011;6861;46.170;7.222;2022-09-13T08:13:42;4.47;;;0.73;;
13580;SDS011;6861;46.170;7.222;2022-09-13T08:16:09;1.58;;;0.70;;
13580;SDS011;6861;46.170;7.222;2022-09-13T08:18:36;2.55;;;0.70;;
13580;SDS011;6861;46.170;7.222;2022-09-13T08:21:03;1.35;;;0.90;;
13580;SDS011;6861;46.170;7.222;2022-09-13T08:23:32;3.90;;;0.80;;
13580;SDS011;6861;46.170;7.222;2022-09-13T08:25:59;1.00;;;0.52;;
13580;SDS011;6861;46.170;7.222;2022-09-13T08:28:27;2.15;;;0.80;;
13580;SDS011;6861;46.170;7.222;2022-09-13T08:30:55;5.85;;;0.88;;
13580;SDS011;6861;46.170;7.222;2022-09-13T08:33:22;5.18;;;1.00;;
13580;SDS011;6861;46.170;7.222;2022-09-13T08:35:49;0.75;;;0.50;;
13580;SDS011;6861;46.170;7.222;2022-09-13T08:38:17;1.10;;;0.60;;
13580;SDS011;6861;46.170;7.222;2022-09-13T08:40:47;4.80;;;0.68;;
13580;SDS011;6861;46.170;7.222;2022-09-13T08:43:19;4.22;;;0.80;;
13580;SDS011;6861;46.170;7.222;2022-09-13T08:45:56;3.35;;;0.90;;
13580;SDS011;6861;46.170;7.222;2022-09-13T08:48:29;3.47;;;0.70;;
13580;SDS011;6861;46.170;7.222;2022-09-13T08:51:01;2.40;;;0.93;;
13580;SDS011;6861;46.170;7.222;2022-09-13T08:53:34;5.97;;;0.90;;
13580;SDS011;6861;46.170;7.222;2022-09-13T08:56:11;4.85;;;0.80;;
13580;SDS011;6861;46.170;7.222;2022-09-13T08:58:48;3.90;;;0.82;;
13580;SDS011;6861;46.170;7.222;2022-09-13T09:01:29;1.13;;;0.57;;
13580;SDS011;6861;46.170;7.222;2022-09-13T09:04:11;4.72;;;1.00;;
13580;SDS011;6861;46.170;7.222;2022-09-13T09:06:51;4.65;;;0.70;;
13580;SDS011;6861;46.170;7.222;2022-09-13T09:09:22;3.90;;;1.20;;
13580;SDS011;6861;46.170;7.222;2022-09-13T09:11:53;4.07;;;0.90;;
13580;SDS011;6861;46.170;7.222;2022-09-13T09:14:28;3.75;;;0.95;;
13580;SDS011;6861;46.170;7.222;2022-09-13T09:16:57;2.10;;;0.47;;
13580;SDS011;6861;46.170;7.222;2022-09-13T09:19:29;3.50;;;0.73;;
13580;SDS011;6861;46.170;7.222;2022-09-13T09:22:00;1.98;;;0.85;;
13580;SDS011;6861;46.170;7.222;2022-09-13T09:24:35;5.05;;;0.90;;
13580;SDS011;6861;46.170;7.222;2022-09-13T09:27:09;3.47;;;0.70;;
13580;SDS011;6861;46.170;7.222;2022-09-13T09:29:40;5.47;;;1.00;;
13580;SDS011;6861;46.170;7.222;2022-09-13T09:32:13;8.02;;;1.02;;
13580;SDS011;6861;46.170;7.222;2022-09-13T09:34:52;3.25;;;0.70;;
13580;SDS011;6861;46.170;7.222;2022-09-13T09:37:29;2.90;;;0.77;;
13580;SDS011;6861;46.170;7.222;2022-09-13T09:39:57;2.00;;;0.63;;
13580;SDS011;6861;46.170;7.222;2022-09-13T09:42:29;2.55;;;0.50;;
13580;SDS011;6861;46.170;7.222;2022-09-13T09:45:17;2.28;;;0.60;;
13580;SDS011;6861;46.170;7.222;2022-09-13T09:47:50;2.47;;;0.75;;
13580;SDS011;6861;46.170;7.222;2022-09-13T09:50:20;1.67;;;0.60;;
13580;SDS011;6861;46.170;7.222;2022-09-13T09:52:52;1.85;;;0.63;;
13580;SDS011;6861;46.170;7.222;2022-09-13T09:55:26;2.28;;;0.50;;
13580;SDS011;6861;46.170;7.222;2022-09-13T09:57:56;1.35;;;0.65;;
13580;SDS011;6861;46.170;7.222;2022-09-13T10:00:25;6.90;;;1.25;;
13580;SDS011;6861;46.170;7.222;2022-09-13T10:02:55;2.47;;;0.60;;
13580;SDS011;6861;46.170;7.222;2022-09-13T10:05:25;1.55;;;0.52;;
13580;SDS011;6861;46.170;7.222;2022-09-13T10:07:57;1.83;;;0.82;;
13580;SDS011;6861;46.170;7.222;2022-09-13T10:10:28;4.05;;;0.90;;
13580;SDS011;6861;46.170;7.222;2022-09-13T10:13:03;3.40;;;0.70;;
13580;SDS011;6861;46.170;7.222;2022-09-13T10:15:33;1.80;;;0.55;;
13580;SDS011;6861;46.170;7.222;2022-09-13T10:18:04;1.38;;;0.50;;
13580;SDS011;6861;46.170;7.222;2022-09-13T10:20:41;1.98;;;0.60;;
13580;SDS011;6861;46.170;7.222;2022-09-13T10:23:25;1.35;;;0.57;;
13580;SDS011;6861;46.170;7.222;2022-09-13T10:25:57;1.15;;;1.00;;
13580;SDS011;6861;46.170;7.222;2022-09-13T10:28:33;2.67;;;0.68;;
13580;SDS011;6861;46.170;7.222;2022-09-13T10:31:03;4.63;;;0.73;;
13580;SDS011;6861;46.170;7.222;2022-09-13T10:33:34;1.48;;;0.60;;
13580;SDS011;6861;46.170;7.222;2022-09-13T10:36:04;2.33;;;0.60;;
13580;SDS011;6861;46.170;7.222;2022-09-13T10:38:38;3.20;;;0.57;;
13580;SDS011;6861;46.170;7.222;2022-09-13T10:41:07;1.77;;;0.50;;
13580;SDS011;6861;46.170;7.222;2022-09-13T10:43:37;2.20;;;0.55;;
13580;SDS011;6861;46.170;7.222;2022-09-13T10:46:05;2.58;;;0.70;;
13580;SDS011;6861;46.170;7.222;2022-09-13T10:48:45;1.73;;;0.50;;
13580;SDS011;6861;46.170;7.222;2022-09-13T10:51:27;2.35;;;0.50;;
13580;SDS011;6861;46.170;7.222;2022-09-13T10:56:49;2.25;;;0.60;;
13580;SDS011;6861;46.170;7.222;2022-09-13T10:59:22;2.25;;;0.50;;
13580;SDS011;6861;46.170;7.222;2022-09-13T11:01:55;3.05;;;0.50;;
13580;SDS011;6861;46.170;7.222;2022-09-13T11:10:47;0.90;;;0.47;;
13580;SDS011;6861;46.170;7.222;2022-09-13T11:13:22;1.33;;;0.35;;
13580;SDS011;6861;46.170;7.222;2022-09-13T11:15:56;0.75;;;0.38;;
13580;SDS011;6861;46.170;7.222;2022-09-13T11:18:34;2.22;;;0.40;;
13580;SDS011;6861;46.170;7.222;2022-09-13T11:21:20;0.70;;;0.35;;
13580;SDS011;6861;46.170;7.222;2022-09-13T11:24:02;1.70;;;0.40;;
13580;SDS011;6861;46.170;7.222;2022-09-13T11:26:47;1.48;;;0.45;;
13580;SDS011;6861;46.170;7.222;2022-09-13T11:29:28;2.00;;;0.40;;
13580;SDS011;6861;46.170;7.222;2022-09-13T11:32:13;1.77;;;0.40;;
13580;SDS011;6861;46.170;7.222;2022-09-13T11:34:53;3.95;;;0.57;;
13580;SDS011;6861;46.170;7.222;2022-09-13T11:37:39;2.45;;;0.60;;
13580;SDS011;6861;46.170;7.222;2022-09-13T11:40:23;1.35;;;0.60;;
13580;SDS011;6861;46.170;7.222;2022-09-13T11:43:02;3.42;;;0.52;;
13580;SDS011;6861;46.170;7.222;2022-09-13T11:45:43;2.75;;;0.43;;
13580;SDS011;6861;46.170;7.222;2022-09-13T11:48:33;1.90;;;0.47;;
13580;SDS011;6861;46.170;7.222;2022-09-13T11:51:12;0.40;;;0.40;;
13580;SDS011;6861;46.170;7.222;2022-09-13T11:53:48;1.63;;;0.50;;
13580;SDS011;6861;46.170;7.222;2022-09-13T11:56:30;1.05;;;0.40;;
13580;SDS011;6861;46.170;7.222;2022-09-13T11:59:06;1.55;;;0.50;;
13580;SDS011;6861;46.170;7.222;2022-09-13T12:01:41;2.15;;;0.50;;
13580;SDS011;6861;46.170;7.222;2022-09-13T12:04:14;0.63;;;0.40;;
13580;SDS011;6861;46.170;7.222;2022-09-13T12:06:46;0.90;;;0.40;;
13580;SDS011;6861;46.170;7.222;2022-09-13T12:09:19;0.95;;;0.40;;
13580;SDS011;6861;46.170;7.222;2022-09-13T12:11:51;1.98;;;0.50;;
13580;SDS011;6861;46.170;7.222;2022-09-13T12:14:24;1.83;;;0.55;;
13580;SDS011;6861;46.170;7.222;2022-09-13T12:16:57;1.20;;;0.40;;
13580;SDS011;6861;46.170;7.222;2022-09-13T12:19:33;1.25;;;0.68;;
13580;SDS011;6861;46.170;7.222;2022-09-13T12:22:07;1.95;;;0.52;;
13580;SDS011;6861;46.170;7.222;2022-09-13T12:24:38;3.00;;;0.50;;
13580;SDS011;6861;46.170;7.222;2022-09-13T12:27:10;1.73;;;0.50;;
13580;SDS011;6861;46.170;7.222;2022-09-13T12:29:45;1.13;;;0.47;;
13580;SDS011;6861;46.170;7.222;2022-09-13T12:32:17;1.70;;;0.45;;
13580;SDS011;6861;46.170;7.222;2022-09-13T12:34:47;2.53;;;0.60;;
13580;SDS011;6861;46.170;7.222;2022-09-13T12:37:27;2.35;;;0.50;;
13580;SDS011;6861;46.170;7.222;2022-09-13T12:46:25;3.22;;;0.82;;
13580;SDS011;6861;46.170;7.222;2022-09-13T12:49:16;2.30;;;0.63;;
13580;SDS011;6861;46.170;7.222;2022-09-13T12:52:08;7.15;;;0.82;;
13580;SDS011;6861;46.170;7.222;2022-09-13T12:54:52;1.42;;;0.65;;
13580;SDS011;6861;46.170;7.222;2022-09-13T12:57:56;1.45;;;0.60;;
13580;SDS011;6861;46.170;7.222;2022-09-13T13:00:35;1.27;;;0.65;;
13580;SDS011;6861;46.170;7.222;2022-09-13T13:03:11;6.35;;;0.75;;
13580;SDS011;6861;46.170;7.222;2022-09-13T13:05:43;0.70;;;0.50;;
13580;SDS011;6861;46.170;7.222;2022-09-13T13:08:21;1.73;;;0.52;;
13580;SDS011;6861;46.170;7.222;2022-09-13T13:10:59;2.22;;;0.82;;
13580;SDS011;6861;46.170;7.222;2022-09-13T13:13:31;1.17;;;0.60;;
13580;SDS011;6861;46.170;7.222;2022-09-13T13:16:02;3.15;;;0.57;;
13580;SDS011;6861;46.170;7.222;2022-09-13T13:18:45;2.03;;;0.73;;
13580;SDS011;6861;46.170;7.222;2022-09-13T13:21:24;1.50;;;0.70;;
13580;SDS011;6861;46.170;7.222;2022-09-13T13:27:31;2.53;;;0.60;;
13580;SDS011;6861;46.170;7.222;2022-09-13T13:33:20;3.03;;;0.80;;
13580;SDS011;6861;46.170;7.222;2022-09-13T13:36:20;1.30;;;0.70;;
13580;SDS011;6861;46.170;7.222;2022-09-13T13:38:48;1.70;;;0.80;;
13580;SDS011;6861;46.170;7.222;2022-09-13T13:50:27;3.92;;;0.88;;
13580;SDS011;6861;46.170;7.222;2022-09-13T13:52:54;3.00;;;0.70;;
13580;SDS011;6861;46.170;7.222;2022-09-13T13:58:24;5.65;;;0.93;;
13580;SDS011;6861;46.170;7.222;2022-09-13T14:01:13;4.18;;;0.90;;
13580;SDS011;6861;46.170;7.222;2022-09-13T14:03:51;1.73;;;0.70;;
13580;SDS011;6861;46.170;7.222;2022-09-13T14:06:36;3.40;;;0.80;;
13580;SDS011;6861;46.170;7.222;2022-09-13T14:09:14;3.58;;;1.00;;
13580;SDS011;6861;46.170;7.222;2022-09-13T14:11:57;2.95;;;0.88;;
13580;SDS011;6861;46.170;7.222;2022-09-13T14:14:43;1.77;;;0.77;;
13580;SDS011;6861;46.170;7.222;2022-09-13T14:20:27;1.48;;;0.73;;
13580;SDS011;6861;46.170;7.222;2022-09-13T14:25:37;1.05;;;0.68;;
13580;SDS011;6861;46.170;7.222;2022-09-13T14:28:05;1.00;;;0.70;;
13580;SDS011;6861;46.170;7.222;2022-09-13T14:30:35;1.70;;;0.70;;
13580;SDS011;6861;46.170;7.222;2022-09-13T14:33:03;1.35;;;0.60;;
13580;SDS011;6861;46.170;7.222;2022-09-13T14:35:31;2.35;;;0.60;;
13580;SDS011;6861;46.170;7.222;2022-09-13T14:38:09;1.05;;;0.65;;
13580;SDS011;6861;46.170;7.222;2022-09-13T14:40:38;1.85;;;0.70;;
13580;SDS011;6861;46.170;7.222;2022-09-13T14:43:13;1.13;;;0.68;;
13580;SDS011;6861;46.170;7.222;2022-09-13T14:45:43;2.88;;;0.65;;
13580;SDS011;6861;46.170;7.222;2022-09-13T14:48:14;1.38;;;0.80;;
13580;SDS011;6861;46.170;7.222;2022-09-13T14:50:46;1.00;;;0.70;;
13580;SDS011;6861;46.170;7.222;2022-09-13T14:53:16;1.05;;;0.70;;
13580;SDS011;6861;46.170;7.222;2022-09-13T14:55:48;2.47;;;0.82;;
13580;SDS011;6861;46.170;7.222;2022-09-13T14:58:19;6.40;;;0.98;;
13580;SDS011;6861;46.170;7.222;2022-09-13T15:00:50;2.67;;;0.80;;
13580;SDS011;6861;46.170;7.222;2022-09-13T15:03:20;3.33;;;0.73;;
13580;SDS011;6861;46.170;7.222;2022-09-13T15:05:51;1.48;;;0.73;;
13580;SDS011;6861;46.170;7.222;2022-09-13T15:08:24;2.15;;;0.70;;
13580;SDS011;6861;46.170;7.222;2022-09-13T15:10:52;1.73;;;0.80;;
13580;SDS011;6861;46.170;7.222;2022-09-13T15:13:22;1.17;;;0.80;;
13580;SDS011;6861;46.170;7.222;2022-09-13T15:15:51;1.75;;;1.00;;
13580;SDS011;6861;46.170;7.222;2022-09-13T15:18:23;2.95;;;0.90;;
13580;SDS011;6861;46.170;7.222;2022-09-13T15:20:51;2.55;;;0.80;;
13580;SDS011;6861;46.170;7.222;2022-09-13T15:23:21;2.20;;;0.80;;
13580;SDS011;6861;46.170;7.222;2022-09-13T15:25:51;1.20;;;0.50;;
13580;SDS011;6861;46.170;7.222;2022-09-13T15:28:21;0.93;;;0.70;;
13580;SDS011;6861;46.170;7.222;2022-09-13T15:30:51;1.25;;;0.80;;
13580;SDS011;6861;46.170;7.222;2022-09-13T15:33:23;3.30;;;0.77;;
13580;SDS011;6861;46.170;7.222;2022-09-13T15:36:10;5.60;;;0.80;;
13580;SDS011;6861;46.170;7.222;2022-09-13T15:38:58;2.10;;;0.65;;
13580;SDS011;6861;46.170;7.222;2022-09-13T15:41:28;2.80;;;0.90;;
13580;SDS011;6861;46.170;7.222;2022-09-13T15:43:58;2.25;;;0.70;;
13580;SDS011;6861;46.170;7.222;2022-09-13T15:46:28;2.63;;;0.82;;
13580;SDS011;6861;46.170;7.222;2022-09-13T15:48:56;0.90;;;0.70;;
13580;SDS011;6861;46.170;7.222;2022-09-13T15:51:25;4.03;;;0.70;;
13580;SDS011;6861;46.170;7.222;2022-09-13T15:53:52;2.17;;;0.80;;
13580;SDS011;6861;46.170;7.222;2022-09-13T15:56:30;1.77;;;0.73;;
13580;SDS011;6861;46.170;7.222;2022-09-13T15:58:59;3.67;;;1.30;;
13580;SDS011;6861;46.170;7.222;2022-09-13T16:01:28;1.92;;;0.70;;
13580;SDS011;6861;46.170;7.222;2022-09-13T16:03:55;3.03;;;1.40;;
13580;SDS011;6861;46.170;7.222;2022-09-13T16:06:22;2.05;;;0.90;;
13580;SDS011;6861;46.170;7.222;2022-09-13T16:08:48;3.42;;;0.75;;
13580;SDS011;6861;46.170;7.222;2022-09-13T16:11:15;1.45;;;0.75;;
13580;SDS011;6861;46.170;7.222;2022-09-13T16:13:42;1.75;;;0.90;;
13580;SDS011;6861;46.170;7.222;2022-09-13T16:16:10;4.28;;;0.90;;